sensor_id;sensor_type;location;lat;lon;timestamp;P1;durP1;ratioP1;P2;durP2;ratioP2
39078;SDS011;24829;49.208;12.080;2022-09-20T00:00:41;7.57;;;2.85;;
39078;SDS011;24829;49.208;12.080;2022-09-20T00:03:09;7.25;;;2.20;;
39078;SDS011;24829;49.208;12.080;2022-09-20T00:05:36;5.95;;;2.10;;
39078;SDS011;24829;49.208;12.080;2022-09-20T00:08:03;6.13;;;2.13;;
39078;SDS011;24829;49.208;12.080;2022-09-20T00:10:32;7.63;;;2.65;;
39078;SDS011;24829;49.208;12.080;2022-09-20T00:13:00;7.22;;;2.67;;
39078;SDS011;24829;49.208;12.080;2022-09-20T00:15:26;6.80;;;3.03;;
39078;SDS011;24829;49.208;12.080;2022-09-20T00:17:51;5.25;;;3.05;;
39078;SDS011;24829;49.208;12.080;2022-09-20T00:20:17;6.40;;;2.60;;
39078;SDS011;24829;49.208;12.080;2022-09-20T00:22:42;4.90;;;2.83;;
39078;SDS011;24829;49.208;12.080;2022-09-20T00:25:08;5.88;;;3.17;;
39078;SDS011;24829;49.208;12.080;2022-09-20T00:27:34;7.28;;;3.15;;
39078;SDS011;24829;49.208;12.080;2022-09-20T00:30:00;6.00;;;3.55;;
39078;SDS011;24829;49.208;12.080;2022-09-20T00:32:25;7.85;;;3.30;;
39078;SDS011;24829;49.208;12.080;2022-09-20T00:34:51;5.22;;;2.35;;
39078;SDS011;24829;49.208;12.080;2022-09-20T00:37:32;6.63;;;3.03;;
39078;SDS011;24829;49.208;12.080;2022-09-20T00:39:58;6.40;;;2.72;;
39078;SDS011;24829;49.208;12.080;2022-09-20T00:42:28;7.78;;;3.33;;
39078;SDS011;24829;49.208;12.080;2022-09-20T00:45:04;10.43;;;3.08;;
39078;SDS011;24829;49.208;12.080;2022-09-20T00:47:42;7.13;;;2.88;;
39078;SDS011;24829;49.208;12.080;2022-09-20T00:53:01;11.15;;;3.28;;
39078;SDS011;24829;49.208;12.080;2022-09-20T00:55:30;4.85;;;2.85;;
39078;SDS011;24829;49.208;12.080;2022-09-20T00:57:58;9.60;;;3.08;;
39078;SDS011;24829;49.208;12.080;2022-09-20T01:00:25;5.95;;;3.20;;
39078;SDS011;24829;49.208;12.080;2022-09-20T01:02:52;7.82;;;2.90;;
39078;SDS011;24829;49.208;12.080;2022-09-20T01:05:22;6.57;;;2.92;;
39078;SDS011;24829;49.208;12.080;2022-09-20T01:07:48;6.30;;;2.97;;
39078;SDS011;24829;49.208;12.080;2022-09-20T01:10:15;12.20;;;3.30;;
39078;SDS011;24829;49.208;12.080;2022-09-20T01:12:41;9.13;;;2.63;;
39078;SDS011;24829;49.208;12.080;2022-09-20T01:15:10;8.27;;;2.40;;
39078;SDS011;24829;49.208;12.080;2022-09-20T01:17:38;7.80;;;2.60;;
39078;SDS011;24829;49.208;12.080;2022-09-20T01:25:35;6.38;;;2.53;;
39078;SDS011;24829;49.208;12.080;2022-09-20T01:28:08;8.45;;;4.22;;
39078;SDS011;24829;49.208;12.080;2022-09-20T01:30:42;4.72;;;2.13;;
39078;SDS011;24829;49.208;12.080;2022-09-20T01:36:05;5.65;;;2.83;;
39078;SDS011;24829;49.208;12.080;2022-09-20T01:41:17;11.82;;;2.67;;
39078;SDS011;24829;49.208;12.080;2022-09-20T01:43:50;4.72;;;2.33;;
39078;SDS011;24829;49.208;12.080;2022-09-20T01:48:45;4.45;;;2.60;;
39078;SDS011;24829;49.208;12.080;2022-09-20T01:56:53;7.10;;;2.25;;
39078;SDS011;24829;49.208;12.080;2022-09-20T02:07:51;4.45;;;2.47;;
39078;SDS011;24829;49.208;12.080;2022-09-20T02:16:02;8.85;;;3.75;;
39078;SDS011;24829;49.208;12.080;2022-09-20T02:18:53;10.95;;;4.57;;
39078;SDS011;24829;49.208;12.080;2022-09-20T02:24:37;15.18;;;5.22;;
39078;SDS011;24829;49.208;12.080;2022-09-20T02:27:14;12.07;;;4.60;;
39078;SDS011;24829;49.208;12.080;2022-09-20T02:29:46;8.88;;;3.67;;
39078;SDS011;24829;49.208;12.080;2022-09-20T02:35:24;4.95;;;2.70;;
39078;SDS011;24829;49.208;12.080;2022-09-20T02:37:59;7.13;;;3.03;;
39078;SDS011;24829;49.208;12.080;2022-09-20T02:40:41;8.57;;;3.13;;
39078;SDS011;24829;49.208;12.080;2022-09-20T02:45:49;10.30;;;4.00;;
39078;SDS011;24829;49.208;12.080;2022-09-20T02:48:48;11.40;;;4.60;;
39078;SDS011;24829;49.208;12.080;2022-09-20T02:51:19;9.95;;;5.18;;
39078;SDS011;24829;49.208;12.080;2022-09-20T02:57:04;8.95;;;3.95;;
39078;SDS011;24829;49.208;12.080;2022-09-20T03:16:08;9.35;;;3.10;;
39078;SDS011;24829;49.208;12.080;2022-09-20T03:18:45;5.28;;;2.88;;
39078;SDS011;24829;49.208;12.080;2022-09-20T03:21:41;5.32;;;2.33;;
39078;SDS011;24829;49.208;12.080;2022-09-20T03:24:48;3.83;;;1.92;;
39078;SDS011;24829;49.208;12.080;2022-09-20T03:27:42;4.93;;;1.75;;
39078;SDS011;24829;49.208;12.080;2022-09-20T03:30:36;7.03;;;1.95;;
39078;SDS011;24829;49.208;12.080;2022-09-20T03:33:14;6.72;;;1.95;;
39078;SDS011;24829;49.208;12.080;2022-09-20T03:38:50;6.05;;;2.08;;
39078;SDS011;24829;49.208;12.080;2022-09-20T03:47:39;6.97;;;2.30;;
39078;SDS011;24829;49.208;12.080;2022-09-20T03:56:09;7.55;;;2.38;;
39078;SDS011;24829;49.208;12.080;2022-09-20T04:01:56;5.38;;;2.80;;
39078;SDS011;24829;49.208;12.080;2022-09-20T04:15:58;11.27;;;3.33;;
39078;SDS011;24829;49.208;12.080;2022-09-20T04:26:25;9.45;;;3.95;;
39078;SDS011;24829;49.208;12.080;2022-09-20T04:28:55;9.60;;;3.83;;
39078;SDS011;24829;49.208;12.080;2022-09-20T04:31:35;9.45;;;3.72;;
39078;SDS011;24829;49.208;12.080;2022-09-20T04:34:20;6.65;;;3.40;;
39078;SDS011;24829;49.208;12.080;2022-09-20T04:37:23;8.23;;;3.75;;
39078;SDS011;24829;49.208;12.080;2022-09-20T04:40:08;7.75;;;3.28;;
39078;SDS011;24829;49.208;12.080;2022-09-20T04:43:04;8.45;;;3.88;;
39078;SDS011;24829;49.208;12.080;2022-09-20T05:00:08;11.88;;;4.65;;
39078;SDS011;24829;49.208;12.080;2022-09-20T05:13:54;8.27;;;4.18;;
39078;SDS011;24829;49.208;12.080;2022-09-20T05:19:30;6.15;;;3.63;;
39078;SDS011;24829;49.208;12.080;2022-09-20T05:28:09;10.88;;;3.60;;
39078;SDS011;24829;49.208;12.080;2022-09-20T05:30:48;8.73;;;4.78;;
39078;SDS011;24829;49.208;12.080;2022-09-20T05:36:25;5.90;;;3.00;;
39078;SDS011;24829;49.208;12.080;2022-09-20T05:49:38;6.57;;;2.75;;
39078;SDS011;24829;49.208;12.080;2022-09-20T06:00:20;6.50;;;3.85;;
39078;SDS011;24829;49.208;12.080;2022-09-20T06:05:38;6.55;;;2.63;;
39078;SDS011;24829;49.208;12.080;2022-09-20T06:16:49;3.72;;;2.17;;
39078;SDS011;24829;49.208;12.080;2022-09-20T06:19:40;7.47;;;1.50;;
39078;SDS011;24829;49.208;12.080;2022-09-20T06:22:26;5.53;;;1.73;;
39078;SDS011;24829;49.208;12.080;2022-09-20T06:24:58;7.05;;;1.48;;
39078;SDS011;24829;49.208;12.080;2022-09-20T06:27:30;3.67;;;1.25;;
39078;SDS011;24829;49.208;12.080;2022-09-20T06:30:06;5.00;;;1.23;;
39078;SDS011;24829;49.208;12.080;2022-09-20T06:32:52;3.30;;;1.17;;
39078;SDS011;24829;49.208;12.080;2022-09-20T06:35:19;2.20;;;1.00;;
39078;SDS011;24829;49.208;12.080;2022-09-20T06:37:57;2.75;;;0.95;;
39078;SDS011;24829;49.208;12.080;2022-09-20T06:40:54;4.68;;;1.10;;
39078;SDS011;24829;49.208;12.080;2022-09-20T06:43:38;10.35;;;1.17;;
39078;SDS011;24829;49.208;12.080;2022-09-20T06:46:05;4.32;;;1.17;;
39078;SDS011;24829;49.208;12.080;2022-09-20T06:48:31;4.90;;;1.20;;
39078;SDS011;24829;49.208;12.080;2022-09-20T06:50:57;4.90;;;1.00;;
39078;SDS011;24829;49.208;12.080;2022-09-20T06:53:29;3.58;;;1.13;;
39078;SDS011;24829;49.208;12.080;2022-09-20T06:55:56;2.60;;;0.90;;
39078;SDS011;24829;49.208;12.080;2022-09-20T06:58:23;4.50;;;0.77;;
39078;SDS011;24829;49.208;12.080;2022-09-20T07:00:49;10.63;;;1.40;;
39078;SDS011;24829;49.208;12.080;2022-09-20T07:03:14;9.68;;;1.40;;
39078;SDS011;24829;49.208;12.080;2022-09-20T07:05:40;3.25;;;0.70;;
39078;SDS011;24829;49.208;12.080;2022-09-20T07:08:05;7.85;;;1.98;;
39078;SDS011;24829;49.208;12.080;2022-09-20T07:10:31;5.25;;;0.88;;
39078;SDS011;24829;49.208;12.080;2022-09-20T07:12:57;4.80;;;1.30;;
39078;SDS011;24829;49.208;12.080;2022-09-20T07:15:24;5.15;;;1.02;;
39078;SDS011;24829;49.208;12.080;2022-09-20T07:17:50;4.28;;;0.80;;
39078;SDS011;24829;49.208;12.080;2022-09-20T07:20:16;5.43;;;1.20;;
39078;SDS011;24829;49.208;12.080;2022-09-20T07:22:43;8.07;;;1.13;;
39078;SDS011;24829;49.208;12.080;2022-09-20T07:25:09;5.95;;;1.30;;
39078;SDS011;24829;49.208;12.080;2022-09-20T07:27:35;4.18;;;1.08;;
39078;SDS011;24829;49.208;12.080;2022-09-20T07:30:00;3.28;;;0.88;;
39078;SDS011;24829;49.208;12.080;2022-09-20T07:32:26;4.05;;;0.90;;
39078;SDS011;24829;49.208;12.080;2022-09-20T07:34:52;9.75;;;0.90;;
39078;SDS011;24829;49.208;12.080;2022-09-20T07:37:17;3.13;;;0.82;;
39078;SDS011;24829;49.208;12.080;2022-09-20T07:39:43;2.85;;;0.77;;
39078;SDS011;24829;49.208;12.080;2022-09-20T07:42:09;3.20;;;0.90;;
39078;SDS011;24829;49.208;12.080;2022-09-20T07:44:35;5.63;;;1.00;;
39078;SDS011;24829;49.208;12.080;2022-09-20T07:47:04;6.15;;;1.38;;
39078;SDS011;24829;49.208;12.080;2022-09-20T07:49:30;5.22;;;0.90;;
39078;SDS011;24829;49.208;12.080;2022-09-20T07:51:56;4.13;;;0.95;;
39078;SDS011;24829;49.208;12.080;2022-09-20T07:54:22;5.00;;;1.05;;
39078;SDS011;24829;49.208;12.080;2022-09-20T07:56:48;7.38;;;1.20;;
39078;SDS011;24829;49.208;12.080;2022-09-20T07:59:13;4.60;;;0.95;;
39078;SDS011;24829;49.208;12.080;2022-09-20T08:01:39;4.95;;;1.00;;
39078;SDS011;24829;49.208;12.080;2022-09-20T08:04:06;4.47;;;0.75;;
39078;SDS011;24829;49.208;12.080;2022-09-20T08:06:39;6.53;;;1.08;;
39078;SDS011;24829;49.208;12.080;2022-09-20T08:09:07;9.02;;;1.45;;
39078;SDS011;24829;49.208;12.080;2022-09-20T08:11:33;3.42;;;0.80;;
39078;SDS011;24829;49.208;12.080;2022-09-20T08:13:59;6.55;;;1.20;;
39078;SDS011;24829;49.208;12.080;2022-09-20T08:16:26;9.05;;;1.95;;
39078;SDS011;24829;49.208;12.080;2022-09-20T08:18:54;7.43;;;2.20;;
39078;SDS011;24829;49.208;12.080;2022-09-20T08:21:22;3.90;;;0.90;;
39078;SDS011;24829;49.208;12.080;2022-09-20T08:23:48;3.25;;;1.33;;
39078;SDS011;24829;49.208;12.080;2022-09-20T08:26:15;4.13;;;1.00;;
39078;SDS011;24829;49.208;12.080;2022-09-20T08:28:42;3.50;;;0.93;;
39078;SDS011;24829;49.208;12.080;2022-09-20T08:31:10;6.40;;;1.33;;
39078;SDS011;24829;49.208;12.080;2022-09-20T08:33:38;5.03;;;0.95;;
39078;SDS011;24829;49.208;12.080;2022-09-20T08:36:15;8.45;;;1.00;;
39078;SDS011;24829;49.208;12.080;2022-09-20T08:38:42;3.50;;;0.90;;
39078;SDS011;24829;49.208;12.080;2022-09-20T08:41:13;2.65;;;0.70;;
39078;SDS011;24829;49.208;12.080;2022-09-20T08:43:43;2.55;;;0.35;;
39078;SDS011;24829;49.208;12.080;2022-09-20T08:46:13;5.50;;;0.60;;
39078;SDS011;24829;49.208;12.080;2022-09-20T08:48:42;1.75;;;0.50;;
39078;SDS011;24829;49.208;12.080;2022-09-20T08:51:09;4.70;;;0.68;;
39078;SDS011;24829;49.208;12.080;2022-09-20T08:53:39;4.63;;;0.57;;
39078;SDS011;24829;49.208;12.080;2022-09-20T08:56:10;5.88;;;0.82;;
39078;SDS011;24829;49.208;12.080;2022-09-20T08:58:36;3.00;;;0.55;;
39078;SDS011;24829;49.208;12.080;2022-09-20T09:01:04;3.55;;;0.80;;
39078;SDS011;24829;49.208;12.080;2022-09-20T09:03:30;2.17;;;0.50;;
39078;SDS011;24829;49.208;12.080;2022-09-20T09:05:58;3.72;;;0.40;;
39078;SDS011;24829;49.208;12.080;2022-09-20T09:10:54;7.18;;;0.80;;
39078;SDS011;24829;49.208;12.080;2022-09-20T09:15:52;5.40;;;0.70;;
39078;SDS011;24829;49.208;12.080;2022-09-20T09:18:23;2.65;;;0.55;;
39078;SDS011;24829;49.208;12.080;2022-09-20T09:24:03;2.42;;;0.40;;
39078;SDS011;24829;49.208;12.080;2022-09-20T09:26:34;5.72;;;0.40;;
39078;SDS011;24829;49.208;12.080;2022-09-20T09:29:15;3.50;;;0.40;;
39078;SDS011;24829;49.208;12.080;2022-09-20T09:31:47;6.45;;;0.60;;
39078;SDS011;24829;49.208;12.080;2022-09-20T09:34:30;0.95;;;0.30;;
39078;SDS011;24829;49.208;12.080;2022-09-20T09:37:02;2.70;;;0.20;;
39078;SDS011;24829;49.208;12.080;2022-09-20T09:39:32;2.95;;;0.45;;
39078;SDS011;24829;49.208;12.080;2022-09-20T09:42:20;2.05;;;0.50;;
39078;SDS011;24829;49.208;12.080;2022-09-20T09:44:49;4.45;;;0.47;;
39078;SDS011;24829;49.208;12.080;2022-09-20T09:47:24;3.38;;;0.30;;
39078;SDS011;24829;49.208;12.080;2022-09-20T09:49:58;1.13;;;0.40;;
39078;SDS011;24829;49.208;12.080;2022-09-20T09:52:24;1.23;;;0.30;;
39078;SDS011;24829;49.208;12.080;2022-09-20T09:54:53;2.95;;;0.38;;
39078;SDS011;24829;49.208;12.080;2022-09-20T10:00:22;2.10;;;0.40;;
39078;SDS011;24829;49.208;12.080;2022-09-20T10:05:47;3.38;;;0.47;;
39078;SDS011;24829;49.208;12.080;2022-09-20T10:30:25;2.83;;;0.47;;
39078;SDS011;24829;49.208;12.080;2022-09-20T10:38:29;0.90;;;0.40;;
39078;SDS011;24829;49.208;12.080;2022-09-20T10:49:44;1.92;;;0.50;;
39078;SDS011;24829;49.208;12.080;2022-09-20T11:02:44;3.55;;;0.60;;
39078;SDS011;24829;49.208;12.080;2022-09-20T11:08:15;3.97;;;0.63;;
39078;SDS011;24829;49.208;12.080;2022-09-20T11:11:29;2.72;;;0.40;;
39078;SDS011;24829;49.208;12.080;2022-09-20T11:14:01;2.70;;;0.47;;
39078;SDS011;24829;49.208;12.080;2022-09-20T11:19:23;2.38;;;0.50;;
39078;SDS011;24829;49.208;12.080;2022-09-20T11:27:52;2.25;;;0.57;;
39078;SDS011;24829;49.208;12.080;2022-09-20T11:30:22;2.33;;;0.55;;
39078;SDS011;24829;49.208;12.080;2022-09-20T11:35:38;4.43;;;0.90;;
39078;SDS011;24829;49.208;12.080;2022-09-20T11:41:14;6.88;;;1.55;;
39078;SDS011;24829;49.208;12.080;2022-09-20T11:44:04;2.15;;;0.90;;
39078;SDS011;24829;49.208;12.080;2022-09-20T11:46:35;2.40;;;0.60;;
39078;SDS011;24829;49.208;12.080;2022-09-20T11:49:13;5.10;;;0.98;;
39078;SDS011;24829;49.208;12.080;2022-09-20T11:57:25;1.35;;;0.47;;
39078;SDS011;24829;49.208;12.080;2022-09-20T11:59:56;2.15;;;0.57;;
39078;SDS011;24829;49.208;12.080;2022-09-20T12:02:32;1.73;;;0.40;;
39078;SDS011;24829;49.208;12.080;2022-09-20T12:04:59;1.75;;;0.50;;
39078;SDS011;24829;49.208;12.080;2022-09-20T12:07:31;2.88;;;0.60;;
39078;SDS011;24829;49.208;12.080;2022-09-20T12:10:02;2.45;;;0.63;;
39078;SDS011;24829;49.208;12.080;2022-09-20T12:12:36;3.25;;;0.60;;
39078;SDS011;24829;49.208;12.080;2022-09-20T12:15:22;4.80;;;0.40;;
39078;SDS011;24829;49.208;12.080;2022-09-20T12:26:04;3.35;;;0.40;;
39078;SDS011;24829;49.208;12.080;2022-09-20T12:33:59;1.55;;;0.30;;
39078;SDS011;24829;49.208;12.080;2022-09-20T12:36:25;4.63;;;1.08;;
39078;SDS011;24829;49.208;12.080;2022-09-20T12:41:43;0.90;;;0.50;;
39078;SDS011;24829;49.208;12.080;2022-09-20T12:44:22;2.67;;;0.35;;
39078;SDS011;24829;49.208;12.080;2022-09-20T13:00:46;1.27;;;0.40;;
39078;SDS011;24829;49.208;12.080;2022-09-20T13:08:30;2.97;;;0.52;;
39078;SDS011;24829;49.208;12.080;2022-09-20T13:11:09;1.50;;;0.50;;
39078;SDS011;24829;49.208;12.080;2022-09-20T13:13:52;1.92;;;0.38;;
39078;SDS011;24829;49.208;12.080;2022-09-20T13:21:25;2.03;;;0.55;;
39078;SDS011;24829;49.208;12.080;2022-09-20T13:23:52;3.45;;;0.60;;
39078;SDS011;24829;49.208;12.080;2022-09-20T13:26:21;1.92;;;0.60;;
39078;SDS011;24829;49.208;12.080;2022-09-20T13:28:51;1.05;;;0.50;;
39078;SDS011;24829;49.208;12.080;2022-09-20T13:33:44;1.98;;;0.50;;
39078;SDS011;24829;49.208;12.080;2022-09-20T13:36:10;2.70;;;0.55;;
39078;SDS011;24829;49.208;12.080;2022-09-20T13:38:36;2.67;;;0.50;;
39078;SDS011;24829;49.208;12.080;2022-09-20T13:41:03;1.73;;;0.45;;
39078;SDS011;24829;49.208;12.080;2022-09-20T13:43:36;2.22;;;0.60;;
39078;SDS011;24829;49.208;12.080;2022-09-20T13:48:36;2.53;;;0.80;;
39078;SDS011;24829;49.208;12.080;2022-09-20T13:51:02;2.80;;;0.40;;
39078;SDS011;24829;49.208;12.080;2022-09-20T13:53:28;3.50;;;0.88;;
39078;SDS011;24829;49.208;12.080;2022-09-20T13:55:57;2.30;;;0.50;;
39078;SDS011;24829;49.208;12.080;2022-09-20T13:58:24;0.57;;;0.30;;
39078;SDS011;24829;49.208;12.080;2022-09-20T14:03:26;1.80;;;0.50;;
39078;SDS011;24829;49.208;12.080;2022-09-20T14:05:57;3.90;;;0.57;;
39078;SDS011;24829;49.208;12.080;2022-09-20T14:08:25;2.78;;;0.43;;
39078;SDS011;24829;49.208;12.080;2022-09-20T14:11:10;1.77;;;0.40;;
39078;SDS011;24829;49.208;12.080;2022-09-20T14:13:37;2.60;;;0.50;;
39078;SDS011;24829;49.208;12.080;2022-09-20T14:16:06;2.92;;;0.57;;
39078;SDS011;24829;49.208;12.080;2022-09-20T14:18:33;2.53;;;0.50;;
39078;SDS011;24829;49.208;12.080;2022-09-20T14:20:59;1.83;;;0.47;;
39078;SDS011;24829;49.208;12.080;2022-09-20T14:23:26;3.60;;;0.60;;
39078;SDS011;24829;49.208;12.080;2022-09-20T14:28:41;1.27;;;0.50;;
39078;SDS011;24829;49.208;12.080;2022-09-20T14:31:17;2.55;;;0.40;;
39078;SDS011;24829;49.208;12.080;2022-09-20T14:33:52;2.45;;;0.90;;
39078;SDS011;24829;49.208;12.080;2022-09-20T14:36:20;1.95;;;0.90;;
39078;SDS011;24829;49.208;12.080;2022-09-20T14:38:49;2.63;;;0.40;;
39078;SDS011;24829;49.208;12.080;2022-09-20T14:41:25;2.50;;;0.70;;
39078;SDS011;24829;49.208;12.080;2022-09-20T14:43:59;2.80;;;0.45;;
39078;SDS011;24829;49.208;12.080;2022-09-20T14:46:31;1.50;;;0.30;;
39078;SDS011;24829;49.208;12.080;2022-09-20T14:51:50;1.70;;;0.40;;
39078;SDS011;24829;49.208;12.080;2022-09-20T14:54:23;3.47;;;0.60;;
39078;SDS011;24829;49.208;12.080;2022-09-20T14:56:54;1.05;;;0.50;;
39078;SDS011;24829;49.208;12.080;2022-09-20T14:59:23;2.15;;;0.60;;
39078;SDS011;24829;49.208;12.080;2022-09-20T15:01:54;4.00;;;0.60;;
39078;SDS011;24829;49.208;12.080;2022-09-20T15:04:22;0.90;;;0.40;;
39078;SDS011;24829;49.208;12.080;2022-09-20T15:06:49;1.73;;;0.40;;
39078;SDS011;24829;49.208;12.080;2022-09-20T15:09:16;2.17;;;0.60;;
39078;SDS011;24829;49.208;12.080;2022-09-20T15:11:43;1.90;;;0.50;;
39078;SDS011;24829;49.208;12.080;2022-09-20T15:14:09;0.70;;;0.45;;
39078;SDS011;24829;49.208;12.080;2022-09-20T15:16:34;4.28;;;0.55;;
39078;SDS011;24829;49.208;12.080;2022-09-20T15:19:00;1.42;;;0.75;;
39078;SDS011;24829;49.208;12.080;2022-09-20T15:21:26;0.57;;;0.15;;
39078;SDS011;24829;49.208;12.080;2022-09-20T15:23:51;2.10;;;0.30;;
39078;SDS011;24829;49.208;12.080;2022-09-20T15:26:18;0.68;;;0.30;;
39078;SDS011;24829;49.208;12.080;2022-09-20T15:28:45;1.73;;;0.25;;
39078;SDS011;24829;49.208;12.080;2022-09-20T15:31:11;1.55;;;0.55;;
39078;SDS011;24829;49.208;12.080;2022-09-20T15:33:39;1.35;;;0.50;;
39078;SDS011;24829;49.208;12.080;2022-09-20T15:36:05;1.02;;;0.40;;
39078;SDS011;24829;49.208;12.080;2022-09-20T15:38:31;2.22;;;0.55;;
39078;SDS011;24829;49.208;12.080;2022-09-20T15:41:01;1.33;;;0.40;;
39078;SDS011;24829;49.208;12.080;2022-09-20T15:43:29;1.95;;;0.40;;
39078;SDS011;24829;49.208;12.080;2022-09-20T15:45:56;0.85;;;0.30;;
39078;SDS011;24829;49.208;12.080;2022-09-20T15:48:40;2.45;;;0.30;;
39078;SDS011;24829;49.208;12.080;2022-09-20T15:51:07;0.95;;;0.40;;
39078;SDS011;24829;49.208;12.080;2022-09-20T15:53:36;0.50;;;0.30;;
39078;SDS011;24829;49.208;12.080;2022-09-20T15:56:12;2.53;;;0.50;;
39078;SDS011;24829;49.208;12.080;2022-09-20T15:58:42;2.35;;;0.60;;
39078;SDS011;24829;49.208;12.080;2022-09-20T16:01:10;1.45;;;0.45;;
39078;SDS011;24829;49.208;12.080;2022-09-20T16:03:36;1.92;;;0.80;;
39078;SDS011;24829;49.208;12.080;2022-09-20T16:06:05;3.20;;;0.60;;
39078;SDS011;24829;49.208;12.080;2022-09-20T16:08:36;1.33;;;0.40;;
39078;SDS011;24829;49.208;12.080;2022-09-20T16:11:07;3.83;;;0.65;;
39078;SDS011;24829;49.208;12.080;2022-09-20T16:13:34;2.92;;;0.60;;
39078;SDS011;24829;49.208;12.080;2022-09-20T16:16:03;3.33;;;0.55;;
39078;SDS011;24829;49.208;12.080;2022-09-20T16:18:30;0.80;;;0.30;;
39078;SDS011;24829;49.208;12.080;2022-09-20T16:21:15;3.13;;;0.43;;
39078;SDS011;24829;49.208;12.080;2022-09-20T16:23:46;1.75;;;0.93;;
39078;SDS011;24829;49.208;12.080;2022-09-20T16:26:13;0.98;;;0.32;;
39078;SDS011;24829;49.208;12.080;2022-09-20T16:28:39;1.77;;;0.50;;
39078;SDS011;24829;49.208;12.080;2022-09-20T16:31:05;1.33;;;0.40;;
39078;SDS011;24829;49.208;12.080;2022-09-20T16:33:31;2.03;;;0.50;;
39078;SDS011;24829;49.208;12.080;2022-09-20T16:36:00;0.65;;;0.40;;
39078;SDS011;24829;49.208;12.080;2022-09-20T16:38:26;1.20;;;0.38;;
39078;SDS011;24829;49.208;12.080;2022-09-20T16:40:52;2.03;;;0.40;;
39078;SDS011;24829;49.208;12.080;2022-09-20T16:43:19;1.17;;;0.40;;
39078;SDS011;24829;49.208;12.080;2022-09-20T16:45:57;1.73;;;0.45;;
39078;SDS011;24829;49.208;12.080;2022-09-20T16:48:24;1.25;;;0.55;;
39078;SDS011;24829;49.208;12.080;2022-09-20T16:50:54;2.47;;;0.77;;
39078;SDS011;24829;49.208;12.080;2022-09-20T16:53:20;2.50;;;0.50;;
39078;SDS011;24829;49.208;12.080;2022-09-20T16:55:45;2.95;;;1.20;;
39078;SDS011;24829;49.208;12.080;2022-09-20T16:58:12;4.05;;;0.50;;
39078;SDS011;24829;49.208;12.080;2022-09-20T17:00:38;1.05;;;0.40;;
39078;SDS011;24829;49.208;12.080;2022-09-20T17:03:04;1.05;;;0.65;;
39078;SDS011;24829;49.208;12.080;2022-09-20T17:05:30;2.60;;;0.40;;
39078;SDS011;24829;49.208;12.080;2022-09-20T17:07:55;2.03;;;0.57;;
39078;SDS011;24829;49.208;12.080;2022-09-20T17:10:21;1.00;;;0.40;;
39078;SDS011;24829;49.208;12.080;2022-09-20T17:12:48;2.10;;;0.70;;
39078;SDS011;24829;49.208;12.080;2022-09-20T17:15:16;4.30;;;0.88;;
39078;SDS011;24829;49.208;12.080;2022-09-20T17:17:43;1.05;;;0.40;;
39078;SDS011;24829;49.208;12.080;2022-09-20T17:20:09;2.42;;;0.60;;
39078;SDS011;24829;49.208;12.080;2022-09-20T17:22:34;1.10;;;0.30;;
39078;SDS011;24829;49.208;12.080;2022-09-20T17:25:00;1.83;;;0.77;;
39078;SDS011;24829;49.208;12.080;2022-09-20T17:27:26;1.33;;;0.50;;
39078;SDS011;24829;49.208;12.080;2022-09-20T17:29:51;0.95;;;0.40;;
39078;SDS011;24829;49.208;12.080;2022-09-20T17:32:17;1.73;;;0.60;;
39078;SDS011;24829;49.208;12.080;2022-09-20T17:34:44;1.50;;;0.40;;
39078;SDS011;24829;49.208;12.080;2022-09-20T17:37:10;3.67;;;0.50;;
39078;SDS011;24829;49.208;12.080;2022-09-20T17:39:35;1.42;;;0.80;;
39078;SDS011;24829;49.208;12.080;2022-09-20T17:42:01;2.42;;;0.52;;
39078;SDS011;24829;49.208;12.080;2022-09-20T17:44:26;2.08;;;0.63;;
39078;SDS011;24829;49.208;12.080;2022-09-20T17:46:52;1.38;;;0.35;;
39078;SDS011;24829;49.208;12.080;2022-09-20T17:49:21;0.73;;;0.40;;
39078;SDS011;24829;49.208;12.080;2022-09-20T17:54:14;2.50;;;0.50;;
39078;SDS011;24829;49.208;12.080;2022-09-20T17:56:40;2.30;;;0.70;;
39078;SDS011;24829;49.208;12.080;2022-09-20T17:59:07;2.80;;;0.60;;
39078;SDS011;24829;49.208;12.080;2022-09-20T18:01:34;0.73;;;0.40;;
39078;SDS011;24829;49.208;12.080;2022-09-20T18:04:01;0.95;;;0.50;;
39078;SDS011;24829;49.208;12.080;2022-09-20T18:06:30;0.98;;;0.57;;
39078;SDS011;24829;49.208;12.080;2022-09-20T18:08:58;1.08;;;0.55;;
39078;SDS011;24829;49.208;12.080;2022-09-20T18:11:30;1.27;;;0.55;;
39078;SDS011;24829;49.208;12.080;2022-09-20T18:14:00;2.08;;;0.65;;
39078;SDS011;24829;49.208;12.080;2022-09-20T18:16:27;1.20;;;0.60;;
39078;SDS011;24829;49.208;12.080;2022-09-20T18:18:54;1.40;;;0.70;;
39078;SDS011;24829;49.208;12.080;2022-09-20T18:21:21;0.77;;;0.50;;
39078;SDS011;24829;49.208;12.080;2022-09-20T18:23:48;1.42;;;0.57;;
39078;SDS011;24829;49.208;12.080;2022-09-20T18:31:48;1.00;;;0.50;;
39078;SDS011;24829;49.208;12.080;2022-09-20T18:34:20;1.48;;;0.70;;
39078;SDS011;24829;49.208;12.080;2022-09-20T18:36:49;1.95;;;0.70;;
39078;SDS011;24829;49.208;12.080;2022-09-20T18:39:16;2.83;;;0.70;;
39078;SDS011;24829;49.208;12.080;2022-09-20T18:41:56;1.80;;;0.70;;
39078;SDS011;24829;49.208;12.080;2022-09-20T18:44:22;3.53;;;0.70;;
39078;SDS011;24829;49.208;12.080;2022-09-20T18:46:48;2.53;;;0.82;;
39078;SDS011;24829;49.208;12.080;2022-09-20T18:49:16;2.72;;;0.70;;
39078;SDS011;24829;49.208;12.080;2022-09-20T18:51:42;6.25;;;0.93;;
39078;SDS011;24829;49.208;12.080;2022-09-20T18:54:09;3.03;;;0.70;;
39078;SDS011;24829;49.208;12.080;2022-09-20T18:56:36;1.00;;;0.65;;
39078;SDS011;24829;49.208;12.080;2022-09-20T18:59:07;2.40;;;0.82;;
39078;SDS011;24829;49.208;12.080;2022-09-20T19:06:38;5.60;;;1.00;;
39078;SDS011;24829;49.208;12.080;2022-09-20T19:09:19;3.05;;;1.00;;
39078;SDS011;24829;49.208;12.080;2022-09-20T19:11:59;2.40;;;0.57;;
39078;SDS011;24829;49.208;12.080;2022-09-20T19:17:40;1.88;;;1.10;;
39078;SDS011;24829;49.208;12.080;2022-09-20T19:20:21;2.10;;;0.77;;
39078;SDS011;24829;49.208;12.080;2022-09-20T19:23:02;2.65;;;1.25;;
39078;SDS011;24829;49.208;12.080;2022-09-20T19:25:49;5.53;;;2.00;;
39078;SDS011;24829;49.208;12.080;2022-09-20T19:28:38;1.70;;;0.85;;
39078;SDS011;24829;49.208;12.080;2022-09-20T19:31:04;2.80;;;1.38;;
39078;SDS011;24829;49.208;12.080;2022-09-20T19:33:30;4.28;;;0.80;;
39078;SDS011;24829;49.208;12.080;2022-09-20T19:35:56;2.50;;;0.77;;
39078;SDS011;24829;49.208;12.080;2022-09-20T19:48:55;1.00;;;0.60;;
39078;SDS011;24829;49.208;12.080;2022-09-20T19:54:09;2.75;;;0.63;;
39078;SDS011;24829;49.208;12.080;2022-09-20T19:56:53;1.30;;;0.77;;
39078;SDS011;24829;49.208;12.080;2022-09-20T19:59:20;1.85;;;0.57;;
39078;SDS011;24829;49.208;12.080;2022-09-20T20:01:47;1.30;;;0.70;;
39078;SDS011;24829;49.208;12.080;2022-09-20T20:04:13;3.60;;;1.20;;
39078;SDS011;24829;49.208;12.080;2022-09-20T20:12:01;1.65;;;1.00;;
39078;SDS011;24829;49.208;12.080;2022-09-20T20:28:24;6.60;;;3.78;;
39078;SDS011;24829;49.208;12.080;2022-09-20T20:30:50;6.05;;;3.60;;
39078;SDS011;24829;49.208;12.080;2022-09-20T20:33:16;10.60;;;5.07;;
39078;SDS011;24829;49.208;12.080;2022-09-20T20:35:43;11.68;;;5.53;;
39078;SDS011;24829;49.208;12.080;2022-09-20T20:38:17;9.80;;;5.35;;
39078;SDS011;24829;49.208;12.080;2022-09-20T20:40:42;8.98;;;4.78;;
39078;SDS011;24829;49.208;12.080;2022-09-20T20:43:08;8.70;;;4.30;;
39078;SDS011;24829;49.208;12.080;2022-09-20T20:45:34;9.10;;;4.00;;
39078;SDS011;24829;49.208;12.080;2022-09-20T20:47:59;8.63;;;4.28;;
39078;SDS011;24829;49.208;12.080;2022-09-20T20:50:25;8.48;;;5.05;;